Time,TemperatureF,DewpointF,PressureIn,WindDirection,WindDirectionDegrees,WindSpeedMPH,WindSpeedGustMPH,Humidity,HourlyPrecipIn,Conditions,Clouds,dailyrainin,SolarRadiationWatts/m^2,SoftwareType,DateUTC
2013-01-14 00:14:00,8.4,3.0,30.31,West,262,5.0,-999.0,80,-99.99,,,0.00,0,weatherlink.com 1.10,2013-01-14 06:14:00,
2013-01-14 00:29:00,8.3,3.0,30.30,West,275,5.0,-999.0,80,-99.99,,,0.00,0,weatherlink.com 1.10,2013-01-14 06:29:00,
2013-01-14 00:44:00,9.2,4.0,30.31,WNW,300,7.0,-999.0,80,-99.99,,,0.00,0,weatherlink.com 1.10,2013-01-14 06:44:00,
2013-01-14 00:59:00,11.2,6.0,30.31,WNW,302,11.0,-999.0,78,-99.99,,,0.00,0,weatherlink.com 1.10,2013-01-14 06:59:00,
2013-01-14 01:14:00,12.4,6.0,30.31,NW,304,12.0,-999.0,75,-99.99,,,0.00,0,weatherlink.com 1.10,2013-01-14 07:14:00,
2013-01-14 01:29:00,12.4,6.0,30.32,NW,309,12.0,-999.0,74,-99.99,,,0.00,0,weatherlink.com 1.10,2013-01-14 07:29:00,
2013-01-14 01:44:00,12.3,6.0,30.32,WNW,299,6.0,-999.0,74,-99.99,,,0.00,0,weatherlink.com 1.10,2013-01-14 07:44:00,
2013-01-14 02:00:00,11.7,5.0,30.33,WNW,299,3.0,-999.0,74,-99.99,,,0.00,0,weatherlink.com 1.10,2013-01-14 08:00:00,
2013-01-14 02:15:00,11.2,5.0,30.35,WNW,298,5.0,-999.0,75,-99.99,,,0.00,0,weatherlink.com 1.10,2013-01-14 08:15:00,
2013-01-14 02:30:00,9.7,3.0,30.36,WNW,295,4.0,-999.0,73,-99.99,,,0.00,0,weatherlink.com 1.10,2013-01-14 08:30:00,
2013-01-14 02:45:00,6.3,0.0,30.37,WSW,240,6.0,-999.0,76,-99.99,,,0.00,0,weatherlink.com 1.10,2013-01-14 08:45:00,
2013-01-14 03:00:00,6.3,1.0,30.39,SW,225,7.0,-999.0,78,-99.99,,,0.00,0,weatherlink.com 1.10,2013-01-14 09:00:00,
2013-01-14 03:15:00,6.0,1.0,30.39,SW,217,6.0,-999.0,80,-99.99,,,0.00,0,weatherlink.com 1.10,2013-01-14 09:15:00,
2013-01-14 03:30:00,5.4,0.0,30.40,SSW,208,9.0,-999.0,78,-99.99,,,0.00,0,weatherlink.com 1.10,2013-01-14 09:30:00,
2013-01-14 03:45:00,6.1,1.0,30.42,SW,219,10.0,-999.0,80,-99.99,,,0.00,0,weatherlink.com 1.10,2013-01-14 09:45:00,
2013-01-14 04:00:00,7.2,3.0,30.42,WSW,243,7.0,-999.0,81,-99.99,,,0.00,0,weatherlink.com 1.10,2013-01-14 10:00:00,
2013-01-14 04:15:00,7.2,2.0,30.42,WSW,247,6.0,-999.0,80,-99.99,,,0.00,0,weatherlink.com 1.10,2013-01-14 10:15:00,
2013-01-14 04:30:00,7.2,3.0,30.41,WSW,256,6.0,-999.0,81,-99.99,,,0.00,0,weatherlink.com 1.10,2013-01-14 10:30:00,
2013-01-14 04:45:00,7.0,2.0,30.43,WSW,238,9.0,-999.0,81,-99.99,,,0.00,0,weatherlink.com 1.10,2013-01-14 10:45:00,
2013-01-14 05:00:00,7.0,2.0,30.43,WSW,242,5.0,-999.0,81,-99.99,,,0.00,0,weatherlink.com 1.10,2013-01-14 11:00:00,
2013-01-14 05:16:00,6.9,2.0,30.43,WSW,246,5.0,-999.0,81,-99.99,,,0.00,0,weatherlink.com 1.10,2013-01-14 11:16:00,
2013-01-14 05:31:00,7.0,2.0,30.44,WSW,251,3.0,-999.0,81,-99.99,,,0.00,0,weatherlink.com 1.10,2013-01-14 11:31:00,
2013-01-14 05:46:00,6.7,2.0,30.44,WSW,251,5.0,-999.0,81,-99.99,,,0.00,0,weatherlink.com 1.10,2013-01-14 11:46:00,
2013-01-14 06:01:00,6.5,2.0,30.45,WSW,251,5.0,-999.0,81,-99.99,,,0.00,0,weatherlink.com 1.10,2013-01-14 12:01:00,
2013-01-14 06:16:00,6.9,2.0,30.46,WSW,251,2.0,-999.0,81,-99.99,,,0.00,0,weatherlink.com 1.10,2013-01-14 12:16:00,
2013-01-14 06:31:00,6.7,2.0,30.46,WSW,251,4.0,-999.0,81,-99.99,,,0.00,0,weatherlink.com 1.10,2013-01-14 12:31:00,
2013-01-14 06:46:00,6.3,2.0,30.47,WSW,251,6.0,-999.0,81,-99.99,,,0.00,0,weatherlink.com 1.10,2013-01-14 12:46:00,
2013-01-14 07:01:00,6.1,1.0,30.47,WSW,251,4.0,-999.0,80,-99.99,,,0.00,0,weatherlink.com 1.10,2013-01-14 13:01:00,
2013-01-14 07:16:00,6.0,1.0,30.47,WSW,251,3.0,-999.0,81,-99.99,,,0.00,0,weatherlink.com 1.10,2013-01-14 13:16:00,
2013-01-14 07:31:00,6.0,2.0,30.47,WSW,251,1.0,-999.0,82,-99.99,,,0.00,11,weatherlink.com 1.10,2013-01-14 13:31:00,
2013-01-14 07:46:00,6.3,2.0,30.47,WSW,251,0.0,-999.0,82,-99.99,,,0.00,26,weatherlink.com 1.10,2013-01-14 13:46:00,
2013-01-14 08:01:00,6.0,2.0,30.48,WSW,251,2.0,-999.0,82,-99.99,,,0.00,51,weatherlink.com 1.10,2013-01-14 14:01:00,
2013-01-14 08:16:00,7.6,3.0,30.48,WSW,251,2.0,-999.0,82,-99.99,,,0.00,79,weatherlink.com 1.10,2013-01-14 14:16:00,
2013-01-14 08:31:00,9.0,5.0,30.48,WSW,251,3.0,-999.0,82,-99.99,,,0.00,114,weatherlink.com 1.10,2013-01-14 14:31:00,
2013-01-14 08:47:00,10.5,6.0,30.47,WSW,251,3.0,-999.0,81,-99.99,,,0.00,171,weatherlink.com 1.10,2013-01-14 14:47:00,
2013-01-14 09:02:00,12.3,6.0,30.47,NW,311,7.0,-999.0,76,-99.99,,,0.00,213,weatherlink.com 1.10,2013-01-14 15:02:00,
2013-01-14 09:17:00,13.5,6.0,30.47,NNW,335,4.0,-999.0,72,-99.99,,,0.00,257,weatherlink.com 1.10,2013-01-14 15:17:00,
2013-01-14 09:32:00,14.0,6.0,30.46,NNW,334,7.0,-999.0,70,-99.99,,,0.00,288,weatherlink.com 1.10,2013-01-14 15:32:00,
2013-01-14 09:47:00,14.8,7.0,30.46,NNW,340,6.0,-999.0,70,-99.99,,,0.00,294,weatherlink.com 1.10,2013-01-14 15:47:00,
2013-01-14 10:02:00,15.4,7.0,30.45,NW,316,4.0,-999.0,68,-99.99,,,0.00,295,weatherlink.com 1.10,2013-01-14 16:02:00,
2013-01-14 10:17:00,16.4,7.0,30.47,NW,318,3.0,-999.0,66,-99.99,,,0.00,313,weatherlink.com 1.10,2013-01-14 16:17:00,
2013-01-14 10:32:00,17.3,8.0,30.48,NW,305,5.0,-999.0,66,-99.99,,,0.00,353,weatherlink.com 1.10,2013-01-14 16:32:00,
2013-01-14 10:47:00,18.3,8.0,30.50,NW,304,5.0,-999.0,64,-99.99,,,0.00,329,weatherlink.com 1.10,2013-01-14 16:47:00,
2013-01-14 11:02:00,18.4,7.0,30.49,WNW,298,6.0,-999.0,62,-99.99,,,0.00,299,weatherlink.com 1.10,2013-01-14 17:02:00,
2013-01-14 11:17:00,19.1,9.0,30.48,WNW,295,5.0,-999.0,64,-99.99,,,0.00,378,weatherlink.com 1.10,2013-01-14 17:17:00,
2013-01-14 11:32:00,19.4,9.0,30.48,NW,308,4.0,-999.0,63,-99.99,,,0.00,364,weatherlink.com 1.10,2013-01-14 17:32:00,
2013-01-14 11:47:00,20.0,9.0,30.47,NW,304,5.0,-999.0,62,-99.99,,,0.00,255,weatherlink.com 1.10,2013-01-14 17:47:00,
2013-01-14 12:02:00,20.2,8.0,30.45,NW,306,6.0,-999.0,60,-99.99,,,0.00,304,weatherlink.com 1.10,2013-01-14 18:02:00,
2013-01-14 12:18:00,21.0,7.0,30.45,WNW,301,8.0,-999.0,56,-99.99,,,0.00,436,weatherlink.com 1.10,2013-01-14 18:18:00,
2013-01-14 12:33:00,22.2,9.0,30.45,WNW,298,9.0,-999.0,57,-99.99,,,0.00,397,weatherlink.com 1.10,2013-01-14 18:33:00,
2013-01-14 12:48:00,22.9,9.0,30.44,WNW,298,9.0,-999.0,55,-99.99,,,0.00,487,weatherlink.com 1.10,2013-01-14 18:48:00,
2013-01-14 13:03:00,23.6,9.0,30.45,NW,315,5.0,-999.0,54,-99.99,,,0.00,473,weatherlink.com 1.10,2013-01-14 19:03:00,
2013-01-14 13:18:00,25.4,9.0,30.44,WNW,300,5.0,-999.0,51,-99.99,,,0.00,448,weatherlink.com 1.10,2013-01-14 19:18:00,
2013-01-14 13:33:00,26.0,10.0,30.43,WNW,300,2.0,-999.0,50,-99.99,,,0.00,450,weatherlink.com 1.10,2013-01-14 19:33:00,
2013-01-14 13:48:00,26.7,10.0,30.43,WNW,303,5.0,-999.0,50,-99.99,,,0.00,438,weatherlink.com 1.10,2013-01-14 19:48:00,
2013-01-14 14:03:00,25.8,9.0,30.44,NW,304,3.0,-999.0,49,-99.99,,,0.00,376,weatherlink.com 1.10,2013-01-14 20:03:00,
2013-01-14 14:18:00,26.3,9.0,30.44,NW,304,3.0,-999.0,49,-99.99,,,0.00,190,weatherlink.com 1.10,2013-01-14 20:18:00,
2013-01-14 14:33:00,25.4,9.0,30.45,NW,305,0.0,-999.0,49,-99.99,,,0.00,225,weatherlink.com 1.10,2013-01-14 20:33:00,
2013-01-14 14:48:00,25.7,9.0,30.45,SSW,207,3.0,-999.0,50,-99.99,,,0.00,213,weatherlink.com 1.10,2013-01-14 20:48:00,
2013-01-14 15:03:00,24.2,8.0,30.45,SSE,163,0.0,-999.0,51,-99.99,,,0.00,158,weatherlink.com 1.10,2013-01-14 21:03:00,
2013-01-14 15:18:00,24.1,8.0,30.45,ESE,121,0.0,-999.0,51,-99.99,,,0.00,58,weatherlink.com 1.10,2013-01-14 21:18:00,
2013-01-14 15:34:00,24.1,8.0,30.46,ESE,121,0.0,-999.0,50,-99.99,,,0.00,98,weatherlink.com 1.10,2013-01-14 21:34:00,
2013-01-14 15:49:00,24.1,10.0,30.45,SE,124,0.0,-999.0,54,-99.99,,,0.00,76,weatherlink.com 1.10,2013-01-14 21:49:00,
2013-01-14 16:04:00,23.6,9.0,30.45,SE,124,0.0,-999.0,53,-99.99,,,0.00,51,weatherlink.com 1.10,2013-01-14 22:04:00,
2013-01-14 16:19:00,23.3,8.0,30.45,SE,124,0.0,-999.0,53,-99.99,,,0.00,26,weatherlink.com 1.10,2013-01-14 22:19:00,
2013-01-14 16:34:00,22.7,9.0,30.45,SE,124,0.0,-999.0,55,-99.99,,,0.00,16,weatherlink.com 1.10,2013-01-14 22:34:00,
2013-01-14 16:49:00,21.1,9.0,30.45,SE,125,0.0,-999.0,59,-99.99,,,0.00,9,weatherlink.com 1.10,2013-01-14 22:49:00,
2013-01-14 17:04:00,19.2,8.0,30.45,SE,125,0.0,-999.0,62,-99.99,,,0.00,0,weatherlink.com 1.10,2013-01-14 23:04:00,
2013-01-14 17:19:00,18.4,8.0,30.45,SE,125,0.0,-999.0,64,-99.99,,,0.00,0,weatherlink.com 1.10,2013-01-14 23:19:00,
2013-01-14 17:34:00,18.1,8.0,30.45,SE,125,0.0,-999.0,65,-99.99,,,0.00,0,weatherlink.com 1.10,2013-01-14 23:34:00,
2013-01-14 17:49:00,17.7,8.0,30.45,SE,125,5.0,-999.0,67,-99.99,,,0.00,0,weatherlink.com 1.10,2013-01-14 23:49:00,
2013-01-14 18:04:00,16.2,7.0,30.45,SE,126,4.0,-999.0,68,-99.99,,,0.00,0,weatherlink.com 1.10,2013-01-15 00:04:00,
2013-01-14 18:19:00,14.6,7.0,30.46,SE,126,5.0,-999.0,71,-99.99,,,0.00,0,weatherlink.com 1.10,2013-01-15 00:19:00,
2013-01-14 18:34:00,14.1,7.0,30.46,South,175,7.0,-999.0,72,-99.99,,,0.00,0,weatherlink.com 1.10,2013-01-15 00:34:00,
2013-01-14 18:49:00,13.5,7.0,30.46,South,175,6.0,-999.0,74,-99.99,,,0.00,0,weatherlink.com 1.10,2013-01-15 00:49:00,
2013-01-14 19:05:00,12.9,6.0,30.46,South,176,5.0,-999.0,75,-99.99,,,0.00,0,weatherlink.com 1.10,2013-01-15 01:05:00,
2013-01-14 19:20:00,12.4,6.0,30.46,South,190,6.0,-999.0,76,-99.99,,,0.00,0,weatherlink.com 1.10,2013-01-15 01:20:00,
2013-01-14 19:35:00,11.7,6.0,30.46,South,190,7.0,-999.0,77,-99.99,,,0.00,0,weatherlink.com 1.10,2013-01-15 01:35:00,
2013-01-14 19:50:00,12.1,6.0,30.46,SSW,194,5.0,-999.0,77,-99.99,,,0.00,0,weatherlink.com 1.10,2013-01-15 01:50:00,
2013-01-14 20:05:00,11.4,6.0,30.46,SSW,196,7.0,-999.0,77,-99.99,,,0.00,0,weatherlink.com 1.10,2013-01-15 02:05:00,
2013-01-14 20:20:00,11.2,5.0,30.45,SSW,200,6.0,-999.0,77,-99.99,,,0.00,0,weatherlink.com 1.10,2013-01-15 02:20:00,
2013-01-14 20:35:00,11.1,6.0,30.44,SSW,200,6.0,-999.0,78,-99.99,,,0.00,0,weatherlink.com 1.10,2013-01-15 02:35:00,
2013-01-14 20:50:00,11.7,6.0,30.45,SSW,200,6.0,-999.0,77,-99.99,,,0.00,0,weatherlink.com 1.10,2013-01-15 02:50:00,
2013-01-14 21:05:00,11.6,6.0,30.44,SSW,200,6.0,-999.0,77,-99.99,,,0.00,0,weatherlink.com 1.10,2013-01-15 03:05:00,
2013-01-14 21:20:00,11.4,6.0,30.43,SSW,200,6.0,-999.0,77,-99.99,,,0.00,0,weatherlink.com 1.10,2013-01-15 03:20:00,
2013-01-14 21:35:00,10.7,5.0,30.44,SSW,200,5.0,-999.0,78,-99.99,,,0.00,0,weatherlink.com 1.10,2013-01-15 03:35:00,
2013-01-14 21:50:00,10.9,5.0,30.44,SSW,200,6.0,-999.0,78,-99.99,,,0.00,0,weatherlink.com 1.10,2013-01-15 03:50:00,
2013-01-14 22:05:00,10.5,5.0,30.44,SSW,201,5.0,-999.0,78,-99.99,,,0.00,0,weatherlink.com 1.10,2013-01-15 04:05:00,
2013-01-14 22:20:00,10.0,5.0,30.44,SSW,201,8.0,-999.0,79,-99.99,,,0.00,0,weatherlink.com 1.10,2013-01-15 04:20:00,
2013-01-14 22:36:00,11.2,6.0,30.44,SSW,202,7.0,-999.0,78,-99.99,,,0.00,0,weatherlink.com 1.10,2013-01-15 04:36:00,
2013-01-14 22:51:00,11.6,6.0,30.45,SSW,213,8.0,-999.0,78,-99.99,,,0.00,0,weatherlink.com 1.10,2013-01-15 04:51:00,
2013-01-14 23:06:00,10.9,5.0,30.45,SW,214,5.0,-999.0,78,-99.99,,,0.00,0,weatherlink.com 1.10,2013-01-15 05:06:00,
2013-01-14 23:21:00,10.4,5.0,30.45,SW,214,5.0,-999.0,78,-99.99,,,0.00,0,weatherlink.com 1.10,2013-01-15 05:21:00,
2013-01-14 23:36:00,9.7,4.0,30.44,SW,214,5.0,-999.0,79,-99.99,,,0.00,0,weatherlink.com 1.10,2013-01-15 05:36:00,
2013-01-14 23:51:00,10.0,5.0,30.43,SW,214,2.0,-999.0,80,-99.99,,,0.00,0,weatherlink.com 1.10,2013-01-15 05:51:00,